Time;durP1;ratioP1;P1;durP2;ratioP2;P2;SDS_P1;SDS_P2;PMS_P1;PMS_P2;Temp;Humidity;BMP_temperature;BMP_pressure;BME280_temperature;BME280_humidity;BME280_pressure;Samples;Min_cycle;Max_cycle;Signal;HPM_P1;HPM_P2
2022/04/01 00:02:19;;;;;;;15.82;12.93;;;8.80;82.00;;;6.93;93.24;93784.75;4847929;28;20407;-66
2022/04/01 00:04:45;;;;;;;15.32;12.93;;;8.80;81.80;;;6.90;92.25;93783.38;4864369;28;20320;-66
2022/04/01 00:07:12;;;;;;;15.25;12.02;;;8.70;81.80;;;6.89;92.94;93778.38;4886131;28;20270;-66
2022/04/01 00:09:38;;;;;;;14.52;12.32;;;8.70;82.00;;;6.85;93.13;93779.84;4869661;28;20274;-66
2022/04/01 00:12:08;;;;;;;15.98;12.55;;;8.70;82.00;;;6.83;93.85;93781.91;4891482;28;20371;-66
2022/04/01 00:14:34;;;;;;;14.90;11.45;;;8.60;82.10;;;6.79;92.87;93778.94;4868434;28;20570;-66
2022/04/01 00:17:00;;;;;;;14.35;11.73;;;8.70;82.10;;;6.78;93.03;93776.53;4866714;28;20679;-66
2022/04/01 00:19:27;;;;;;;13.93;11.52;;;8.60;82.30;;;6.76;93.38;93777.53;4894150;28;20321;-66
2022/04/01 00:21:54;;;;;;;13.18;11.63;;;8.60;82.30;;;6.73;92.87;93775.38;4885220;28;20328;-66
2022/04/01 00:24:21;;;;;;;13.43;10.90;;;8.60;82.30;;;6.71;93.18;93782.63;4881701;28;20864;-66
2022/04/01 00:26:47;;;;;;;12.70;10.35;;;8.60;82.20;;;6.70;93.11;93777.63;4843908;28;20411;-65
2022/04/01 00:29:16;;;;;;;12.38;10.35;;;8.60;82.40;;;6.68;93.70;93782.28;4860513;28;20357;-66
2022/04/01 00:31:58;;;;;;;11.70;9.93;;;8.60;82.20;;;6.68;93.98;93777.84;4901816;28;20354;-66
2022/04/01 00:34:28;;;;;;;11.95;10.25;;;8.60;82.30;;;6.67;93.03;93780.69;4869620;28;20604;-66
2022/04/01 00:36:55;;;;;;;12.40;9.55;;;8.60;82.10;;;6.66;93.71;93777.28;4907787;28;20694;-65
2022/04/01 00:39:22;;;;;;;11.35;9.82;;;8.60;82.10;;;6.64;93.91;93779.31;4918186;28;20270;-65
2022/04/01 00:41:49;;;;;;;11.52;9.82;;;8.60;82.00;;;6.64;93.75;93779.31;4868024;28;20673;-66
2022/04/01 00:44:24;;;;;;;12.05;9.50;;;8.50;82.10;;;6.62;94.05;93778.75;4895319;28;20570;-66
2022/04/01 00:47:23;;;;;;;11.93;9.40;;;8.50;82.20;;;6.61;94.49;93778.97;4901440;28;20548;-66
2022/04/01 00:49:49;;;;;;;13.05;9.38;;;8.50;82.20;;;6.59;93.81;93776.59;4869926;28;20593;-67
2022/04/01 00:52:17;;;;;;;10.30;8.88;;;8.50;82.30;;;6.59;94.24;93779.19;4881999;28;20434;-66
2022/04/01 00:54:44;;;;;;;10.13;8.73;;;8.40;82.20;;;6.57;93.60;93773.41;4892875;28;20487;-66
2022/04/01 00:57:13;;;;;;;11.68;8.73;;;8.40;82.30;;;6.55;94.01;93772.00;4867446;28;20278;-66
2022/04/01 00:59:39;;;;;;;11.20;8.60;;;8.40;82.20;;;6.51;93.37;93774.25;4894892;28;20362;-66
2022/04/01 01:02:05;;;;;;;10.23;8.38;;;8.40;82.40;;;6.50;93.47;93769.25;4894536;28;20308;-66
2022/04/01 01:04:31;;;;;;;11.07;8.45;;;8.30;82.40;;;6.47;93.29;93770.50;4928693;28;20192;-66
2022/04/01 01:07:00;;;;;;;13.20;8.80;;;8.30;82.30;;;6.45;93.90;93764.72;4892911;28;20306;-66
2022/04/01 01:09:26;;;;;;;10.85;8.82;;;8.30;82.60;;;6.45;93.34;93764.72;4868876;28;20343;-66
2022/04/01 01:11:52;;;;;;;11.80;8.80;;;8.30;82.70;;;6.43;93.67;93764.13;4882907;28;20360;-66
2022/04/01 01:14:30;;;;;;;11.25;8.98;;;8.30;82.70;;;6.44;95.50;93765.72;4889741;28;20371;-66
2022/04/01 01:16:56;;;;;;;11.52;9.18;;;8.30;82.80;;;6.42;94.03;93757.31;4880424;28;20491;-66
2022/04/01 01:19:22;;;;;;;10.85;8.93;;;8.30;82.60;;;6.40;94.84;93760.16;4878893;28;20315;-67
2022/04/01 01:21:51;;;;;;;9.77;7.93;;;8.30;82.70;;;6.40;94.83;93764.56;4895684;28;20608;-66
2022/04/01 01:24:23;;;;;;;9.98;8.60;;;8.30;82.70;;;6.38;94.88;93756.16;4863130;28;20565;-66
2022/04/01 01:26:51;;;;;;;10.48;8.00;;;8.20;82.60;;;6.37;94.30;93760.59;4877128;28;20364;-66
2022/04/01 01:29:29;;;;;;;9.27;8.20;;;8.20;82.80;;;6.35;95.22;93757.41;4887459;28;20360;-66
2022/04/01 01:31:59;;;;;;;11.20;8.80;;;8.20;82.80;;;6.33;94.65;93753.41;4883266;28;20406;-66
2022/04/01 01:34:27;;;;;;;9.68;8.38;;;8.20;82.80;;;6.33;93.82;93753.41;4892400;28;20714;-66
2022/04/01 01:36:53;;;;;;;10.48;7.80;;;8.20;82.80;;;6.32;94.46;93751.81;4851251;28;20372;-66
2022/04/01 01:39:19;;;;;;;12.05;8.52;;;8.20;82.70;;;6.30;95.00;93746.81;4864811;28;20203;-66
2022/04/01 01:41:46;;;;;;;9.65;8.38;;;8.20;82.80;;;6.29;94.25;93747.81;4886716;28;20389;-66
2022/04/01 01:44:13;;;;;;;11.38;8.65;;;8.20;82.90;;;6.30;94.28;93746.00;4883505;28;20298;-68
2022/04/01 01:46:39;;;;;;;10.35;8.43;;;8.10;82.60;;;6.27;94.49;93738.63;4868595;28;20518;-65
2022/04/01 01:49:06;;;;;;;10.15;8.20;;;8.20;82.50;;;6.25;94.97;93741.47;4852668;28;20592;-65
2022/04/01 01:57:02;;;;;;;10.48;7.90;;;8.20;83.00;;;6.24;94.94;93739.06;4870875;28;20351;-65
2022/04/01 01:59:28;;;;;;;9.13;7.95;;;8.10;82.80;;;6.23;94.85;93740.88;4854526;28;20419;-66
2022/04/01 02:01:54;;;;;;;10.50;7.90;;;8.10;82.90;;;6.24;94.83;93742.47;4858649;28;20372;-66
2022/04/01 02:04:22;;;;;;;8.00;7.20;;;8.10;82.80;;;6.23;94.13;93737.47;4914563;28;20395;-66
2022/04/01 02:06:49;;;;;;;9.45;7.70;;;8.10;82.80;;;6.22;95.13;93743.72;4899456;28;20690;-65
2022/04/01 02:09:16;;;;;;;9.30;7.32;;;8.20;82.70;;;6.22;94.91;93735.88;4867330;28;20480;-65
2022/04/01 02:11:43;;;;;;;9.07;7.60;;;8.10;83.20;;;6.21;94.94;93739.50;4848843;28;20288;-66
2022/04/01 02:14:11;;;;;;;9.23;7.60;;;8.10;83.10;;;6.22;95.56;93735.88;4880657;28;20701;-66
2022/04/01 02:16:43;;;;;;;9.32;7.13;;;8.20;82.90;;;6.23;94.47;93734.88;4867338;28;20351;-65
2022/04/01 02:19:10;;;;;;;9.65;7.18;;;8.10;82.60;;;6.18;95.19;93740.75;4867561;28;20224;-66
2022/04/01 02:21:36;;;;;;;8.40;7.15;;;8.10;82.90;;;6.18;95.51;93734.72;4912694;28;20333;-66
2022/04/01 02:24:06;;;;;;;9.45;7.80;;;8.10;82.80;;;6.17;94.98;93722.69;4890615;28;20259;-67
2022/04/01 02:26:32;;;;;;;28.98;23.80;;;8.00;82.80;;;6.17;94.75;93728.72;4867918;28;20371;-66
2022/04/01 02:29:00;;;;;;;13.50;10.15;;;8.10;82.80;;;6.18;94.85;93724.28;4898120;28;20451;-66
2022/04/01 02:31:26;;;;;;;8.55;7.40;;;8.10;82.60;;;6.18;95.55;93726.91;4903710;28;20669;-65
2022/04/01 02:33:52;;;;;;;37.88;30.42;;;8.20;82.50;;;6.21;95.33;93739.50;4872703;28;20560;-65
2022/04/01 02:36:18;;;;;;;22.75;15.82;;;8.10;82.70;;;6.22;95.04;93730.66;4875533;28;20370;-65
2022/04/01 02:38:44;;;;;;;11.45;9.40;;;8.20;82.60;;;6.24;94.96;93728.63;4888458;28;20344;-65
2022/04/01 02:41:14;;;;;;;10.30;7.65;;;8.20;82.70;;;6.22;95.09;93730.66;4884301;28;20414;-65
2022/04/01 02:43:40;;;;;;;7.85;6.53;;;8.10;83.00;;;6.21;94.73;93731.69;4885985;28;20292;-65
2022/04/01 02:46:06;;;;;;;8.07;6.80;;;8.10;82.70;;;6.22;94.72;93730.66;4888302;28;20434;-65
2022/04/01 02:48:32;;;;;;;7.38;6.30;;;8.10;82.70;;;6.23;94.49;93727.03;4880044;28;20321;-65
2022/04/01 02:50:58;;;;;;;7.25;5.97;;;8.20;82.50;;;6.23;94.39;93737.47;4869125;28;20204;-65
2022/04/01 02:53:24;;;;;;;9.45;7.00;;;8.10;82.50;;;6.20;94.79;93737.91;4882828;28;20216;-65
2022/04/01 02:55:50;;;;;;;8.68;7.18;;;8.10;82.80;;;6.19;95.33;93726.69;4906441;28;20383;-65
2022/04/01 02:58:17;;;;;;;9.35;7.07;;;8.10;82.80;;;6.20;95.39;93732.69;4876400;28;20372;-65
2022/04/01 03:00:43;;;;;;;7.93;7.00;;;8.10;82.90;;;6.22;95.34;93738.50;4908681;28;20345;-65
2022/04/01 03:03:09;;;;;;;9.60;8.45;;;8.20;82.90;;;6.20;94.70;93732.69;4868189;28;20591;-67
2022/04/01 03:05:39;;;;;;;16.55;12.93;;;8.00;83.20;;;6.17;94.56;93727.94;4908644;28;20241;-68
2022/04/01 03:08:06;;;;;;;41.17;32.45;;;8.00;83.20;;;6.19;95.01;93728.50;4895889;28;20212;-68
2022/04/01 03:10:36;;;;;;;18.75;14.88;;;8.10;83.20;;;6.20;95.04;93728.28;4855677;28;20374;-67
2022/04/01 03:13:02;;;;;;;9.95;8.07;;;8.10;83.10;;;6.20;95.58;93740.53;4882613;28;20300;-65
2022/04/01 03:15:29;;;;;;;6.90;5.75;;;8.10;83.10;;;6.17;94.94;93733.13;4883938;28;20356;-66
2022/04/01 03:17:56;;;;;;;8.27;5.75;;;8.10;83.00;;;6.17;94.93;93738.38;4889906;28;20326;-65
2022/04/01 03:20:23;;;;;;;8.57;5.55;;;8.00;83.00;;;6.13;95.22;93733.59;4886857;28;20799;-66
2022/04/01 03:22:50;;;;;;;6.50;5.25;;;8.00;83.40;;;6.14;95.22;93739.59;4867521;28;20315;-66
2022/04/01 03:25:18;;;;;;;6.80;5.60;;;8.00;83.10;;;6.12;95.66;93742.44;4874116;28;20320;-65
2022/04/01 03:27:47;;;;;;;6.78;5.50;;;8.00;83.20;;;6.13;96.01;93738.00;4889625;28;20359;-66
2022/04/01 03:30:13;;;;;;;6.13;4.72;;;8.00;83.30;;;6.11;95.73;93746.06;4883024;28;20320;-73
2022/04/01 03:32:40;;;;;;;5.20;4.53;;;7.80;83.30;;;6.09;95.81;93742.84;4853559;28;20363;-72
2022/04/01 03:35:17;;;;;;;4.82;4.30;;;7.80;83.40;;;6.05;95.87;93735.69;4903262;28;20332;-67
2022/04/01 03:37:46;;;;;;;11.27;8.40;;;7.70;83.70;;;6.06;95.80;93743.28;4883480;28;20563;-71
2022/04/01 03:40:14;;;;;;;7.53;4.60;;;7.80;84.00;;;6.07;95.08;93738.88;4851688;28;20348;-66
2022/04/01 03:42:42;;;;;;;7.05;5.43;;;7.80;83.40;;;6.03;95.10;93738.50;4842825;28;20315;-66
2022/04/01 03:45:09;;;;;;;8.60;7.25;;;7.80;83.50;;;6.04;94.49;93737.50;4854433;28;20366;-70
2022/04/01 03:47:49;;;;;;;11.55;9.57;;;7.80;83.10;;;6.05;95.37;93744.31;4869993;28;20263;-69
2022/04/01 03:50:15;;;;;;;5.25;3.90;;;7.80;83.10;;;6.02;94.30;93742.13;4906548;28;20384;-69
2022/04/01 03:52:41;;;;;;;4.10;3.28;;;7.80;82.70;;;6.00;94.12;93738.16;4857223;28;20452;-69
2022/04/01 03:55:09;;;;;;;4.28;3.58;;;7.80;82.70;;;5.95;94.96;93741.41;4900708;28;20414;-69
2022/04/01 03:57:40;;;;;;;4.63;3.78;;;7.60;82.90;;;5.93;94.75;93740.03;4901031;28;20399;-70
2022/04/01 04:00:08;;;;;;;;;;;7.60;83.10;;;5.89;95.72;93742.28;4888734;28;20430;-69
2022/04/01 04:02:34;;;;;;;4.93;3.92;;;7.60;83.20;;;5.84;94.68;93742.09;4886229;28;20168;-70
2022/04/01 04:05:03;;;;;;;4.30;3.40;;;7.50;83.50;;;5.82;94.61;93747.53;4868033;28;20419;-67
2022/04/01 04:07:31;;;;;;;4.10;3.17;;;7.50;83.60;;;5.80;94.92;93743.56;4870589;28;20784;-68
2022/04/01 04:09:58;;;;;;;4.68;3.03;;;7.50;83.40;;;5.79;94.32;93749.78;4894329;28;20370;-68
2022/04/01 04:12:30;;;;;;;4.97;2.85;;;7.60;83.70;;;5.79;95.11;93747.19;4869649;28;20789;-68
2022/04/01 04:14:56;;;;;;;4.30;3.38;;;7.50;83.00;;;5.77;93.82;93750.00;4856506;28;20367;-68
2022/04/01 04:17:37;;;;;;;4.43;3.05;;;7.40;83.20;;;5.76;95.35;93747.63;4869872;28;20781;-68
2022/04/01 04:20:35;;;;;;;5.47;3.30;;;7.40;83.00;;;5.73;95.01;93751.44;4886122;28;20439;-68
2022/04/01 04:23:24;;;;;;;4.68;3.53;;;7.40;83.40;;;5.71;95.93;93752.69;4889077;28;20727;-70
2022/04/01 04:26:01;;;;;;;5.50;3.83;;;7.50;83.40;;;5.65;94.19;93753.53;4877149;28;20296;-68
2022/04/01 04:28:27;;;;;;;5.43;4.00;;;7.30;83.40;;;5.62;93.98;93757.38;4856998;28;20364;-68
2022/04/01 04:30:59;;;;;;;4.45;3.65;;;7.30;83.70;;;5.62;94.28;93757.38;4849443;28;20386;-68
2022/04/01 04:33:29;;;;;;;4.78;3.90;;;7.30;83.30;;;5.59;94.27;93754.41;4851620;28;20377;-68
2022/04/01 04:35:55;;;;;;;4.75;3.63;;;7.30;82.90;;;5.57;94.62;93759.03;4850862;28;20336;-68
2022/04/01 04:38:22;;;;;;;4.40;3.67;;;7.30;83.10;;;5.54;94.53;93755.06;4885162;28;20192;-69
2022/04/01 04:40:48;;;;;;;7.95;4.38;;;7.20;83.10;;;5.50;93.13;93765.13;4883511;28;20375;-68
2022/04/01 04:43:18;;;;;;;4.97;3.17;;;7.10;82.60;;;5.46;93.06;93769.16;4872893;28;20439;-69
2022/04/01 04:45:47;;;;;;;3.55;2.88;;;7.00;82.60;;;5.40;93.36;93759.56;4904769;28;20208;-74
2022/04/01 04:48:13;;;;;;;3.90;2.75;;;6.90;82.60;;;5.37;92.52;93769.63;4874077;28;20315;-68
2022/04/01 04:50:46;;;;;;;3.22;2.38;;;6.90;82.20;;;5.31;92.68;93771.28;4875870;28;20392;-68
2022/04/01 04:53:13;;;;;;;3.05;2.20;;;6.80;81.90;;;5.26;92.47;93771.16;4902469;28;20776;-69
2022/04/01 04:55:40;;;;;;;3.08;2.00;;;6.90;82.30;;;5.21;92.25;93771.78;4873620;28;20320;-66
2022/04/01 04:58:08;;;;;;;1.90;1.48;;;6.80;82.10;;;5.20;92.60;93785.00;4886025;28;20344;-66
2022/04/01 05:00:34;;;;;;;2.13;1.50;;;6.70;82.10;;;5.11;92.22;93781.06;4916389;28;20363;-66
2022/04/01 05:03:19;;;;;;;3.38;1.80;;;6.50;81.50;;;5.05;91.60;93784.53;4884389;28;20569;-66
2022/04/01 05:05:52;;;;;;;2.35;1.52;;;6.60;81.80;;;4.98;91.24;93788.97;4892046;28;20363;-66
2022/04/01 05:09:19;;;;;;;1.73;1.17;;;6.40;81.90;;;4.93;92.04;93795.63;4868799;28;20371;-73
2022/04/01 05:12:24;;;;;;;1.23;0.80;;;6.50;81.70;;;4.89;89.44;93797.06;4844144;28;20330;-67
2022/04/01 05:14:59;;;;;;;0.90;0.50;;;6.40;79.80;;;4.79;90.43;93804.53;4875118;28;20580;-63
2022/04/01 05:17:31;;;;;;;6.10;3.33;;;6.30;80.40;;;4.77;89.89;93801.34;4908864;28;20440;-63
2022/04/01 05:20:00;;;;;;;4.95;2.75;;;6.30;80.50;;;4.73;90.53;93805.34;4847812;28;20427;-67
2022/04/01 05:23:07;;;;;;;4.95;2.38;;;6.30;80.90;;;4.72;90.76;93808.97;4908857;28;20501;-68
2022/04/01 05:25:43;;;;;;;1.65;1.05;;;6.40;81.10;;;4.68;90.69;93804.38;4866503;28;20207;-65
2022/04/01 05:28:20;;;;;;;2.70;1.40;;;6.30;80.90;;;4.64;91.40;93808.44;4895950;28;20486;-66
2022/04/01 05:30:46;;;;;;;2.78;1.48;;;6.20;81.60;;;4.60;90.02;93808.03;4886851;28;20344;-64
2022/04/01 05:33:19;;;;;;;2.85;1.75;;;6.10;81.30;;;4.58;90.78;93807.47;4870126;28;20351;-62
2022/04/01 05:35:51;;;;;;;4.78;2.03;;;6.20;81.20;;;4.58;89.68;93813.47;4881262;28;20344;-66
2022/04/01 05:38:19;;;;;;;3.25;1.98;;;6.30;80.80;;;4.57;90.19;93818.88;4885014;28;20310;-65
2022/04/01 05:40:45;;;;;;;5.78;2.80;;;6.20;80.60;;;4.52;89.93;93821.28;4872848;28;20374;-65
2022/04/01 05:43:13;;;;;;;4.63;3.30;;;6.10;81.10;;;4.51;89.95;93822.28;4849092;28;20356;-64
2022/04/01 05:45:44;;;;;;;4.05;2.80;;;6.10;80.90;;;4.45;89.67;93823.91;4850987;28;20315;-65
2022/04/01 05:48:11;;;;;;;4.10;2.75;;;6.00;81.60;;;4.42;89.64;93834.75;4877634;28;20479;-65
2022/04/01 05:50:38;;;;;;;4.10;2.78;;;6.10;81.30;;;4.41;90.02;93834.97;4864289;28;20825;-64
2022/04/01 05:53:05;;;;;;;3.80;2.47;;;6.00;81.70;;;4.37;90.28;93841.59;4884433;28;20497;-66
2022/04/01 05:55:32;;;;;;;4.43;2.60;;;6.10;81.20;;;4.31;90.07;93835.41;4867609;28;20361;-66
2022/04/01 05:57:58;;;;;;;3.83;2.75;;;5.80;81.00;;;4.27;89.89;93831.59;4879964;28;20212;-63
2022/04/01 06:00:24;;;;;;;4.07;2.50;;;5.90;81.70;;;4.24;90.47;93837.22;4905314;28;20219;-63
2022/04/01 06:03:30;;;;;;;3.85;2.55;;;5.80;81.70;;;4.14;90.64;93831.66;4868485;28;20423;-66
2022/04/01 06:06:31;;;;;;;3.75;2.83;;;5.80;80.80;;;4.14;90.39;93832.44;4886597;28;20470;-66
2022/04/01 06:08:58;;;;;;;4.10;2.40;;;5.70;81.60;;;4.09;90.24;93839.28;4871564;28;20317;-65
2022/04/01 06:12:05;;;;;;;4.55;2.30;;;5.70;81.60;;;4.06;90.56;93845.66;4920509;28;20199;-66
2022/04/01 06:14:52;;;;;;;6.35;2.70;;;5.70;81.50;;;4.02;90.26;93844.47;4912663;28;20711;-64
2022/04/01 06:17:49;;;;;;;4.10;2.33;;;5.60;81.10;;;3.95;90.48;93843.69;4901102;28;20319;-65
2022/04/01 06:20:16;;;;;;;3.08;2.38;;;5.60;81.20;;;3.87;89.63;93846.53;4906203;28;20327;-64
2022/04/01 06:23:14;;;;;;;3.78;2.78;;;5.40;81.80;;;3.80;91.24;93848.31;4891690;28;20375;-66
2022/04/01 06:25:44;;;;;;;5.28;3.38;;;5.40;82.30;;;3.77;90.51;93851.31;4873073;28;20301;-67
2022/04/01 06:28:25;;;;;;;4.68;3.10;;;5.30;82.20;;;3.74;90.46;93862.13;4854304;28;20588;-66
2022/04/01 06:30:54;;;;;;;;;;;5.30;82.30;;;3.67;91.26;93856.94;4887980;28;20592;-64
2022/04/01 06:33:49;;;;;;;3.55;2.53;;;5.20;82.00;;;3.55;90.49;93858.53;4896076;28;20167;-68
2022/04/01 06:36:24;;;;;;;3.80;2.67;;;5.10;82.00;;;3.57;90.82;93862.53;4870324;28;20796;-66
2022/04/01 06:39:07;;;;;;;3.78;2.33;;;5.10;82.30;;;3.57;91.20;93859.94;4870673;28;20457;-65
2022/04/01 06:41:47;;;;;;;4.05;2.40;;;5.20;82.40;;;3.59;90.78;93865.72;4883153;28;20703;-65
2022/04/01 06:44:13;;;;;;;2.90;2.22;;;5.20;81.50;;;3.56;90.39;93870.53;4896269;28;20769;-65
2022/04/01 06:46:39;;;;;;;3.75;2.00;;;5.10;82.00;;;3.53;90.18;93874.34;4901619;28;20376;-65
2022/04/01 06:49:09;;;;;;;2.47;1.90;;;5.10;81.90;;;3.51;90.13;93873.75;4850715;28;20620;-66
2022/04/01 06:51:37;;;;;;;3.22;2.10;;;5.10;81.40;;;3.43;90.39;93866.16;4858011;28;20391;-65
2022/04/01 06:54:03;;;;;;;3.65;2.00;;;5.10;81.80;;;3.45;90.34;93879.75;4900187;28;20628;-66
2022/04/01 06:56:29;;;;;;;6.80;2.40;;;5.10;81.50;;;3.49;89.96;93880.94;4883006;28;20345;-65
2022/04/01 06:58:55;;;;;;;4.60;2.13;;;5.20;81.30;;;3.49;90.09;93878.34;4850012;28;20547;-65
2022/04/01 07:01:21;;;;;;;6.53;1.83;;;5.30;80.50;;;3.47;89.67;93882.94;4872339;28;20395;-64
2022/04/01 07:03:47;;;;;;;8.00;2.22;;;5.20;80.60;;;3.46;89.71;93876.16;4899171;28;20496;-64
2022/04/01 07:06:14;;;;;;;2.35;1.48;;;5.10;80.70;;;3.43;89.58;93881.75;4875424;28;20293;-65
2022/04/01 07:08:41;;;;;;;2.53;1.30;;;5.10;80.60;;;3.38;89.21;93887.50;4880215;28;20501;-65
2022/04/01 07:11:07;;;;;;;2.30;1.50;;;5.00;80.50;;;3.35;89.35;93879.31;4900600;28;20450;-64
2022/04/01 07:13:33;;;;;;;1.95;1.40;;;5.10;80.30;;;3.31;89.09;93872.94;4889612;28;20625;-65
2022/04/01 07:16:00;;;;;;;2.75;1.63;;;5.00;80.10;;;3.28;89.02;93883.72;4903461;28;20520;-64
2022/04/01 07:18:26;;;;;;;1.95;1.27;;;4.90;80.30;;;3.21;88.81;93881.13;4886747;28;20673;-64
2022/04/01 07:20:52;;;;;;;3.25;1.30;;;4.80;79.90;;;3.20;88.78;93881.31;4871466;28;20607;-65
2022/04/01 07:23:18;;;;;;;2.90;1.40;;;4.80;80.20;;;3.16;88.54;93890.47;4910900;28;20296;-66
2022/04/01 07:25:44;;;;;;;2.03;1.50;;;4.80;80.10;;;3.11;88.60;93885.88;4867480;28;20459;-65
2022/04/01 07:28:10;;;;;;;1.42;1.10;;;4.80;79.90;;;3.06;88.47;93886.50;4894544;28;20452;-64
2022/04/01 07:30:37;;;;;;;3.83;1.60;;;4.70;80.50;;;3.04;88.51;93893.69;4890866;28;20316;-65
2022/04/01 07:33:03;;;;;;;3.03;1.50;;;4.70;80.40;;;3.04;88.30;93890.28;4902130;28;20360;-66
2022/04/01 07:35:30;;;;;;;1.95;1.20;;;4.70;80.70;;;3.00;88.71;93892.47;4855062;28;20473;-66
2022/04/01 07:37:56;;;;;;;4.50;1.25;;;4.60;80.10;;;2.98;89.07;93898.88;4867320;28;20352;-66
2022/04/01 07:40:24;;;;;;;2.75;1.40;;;4.70;80.20;;;2.95;88.06;93894.88;4848823;28;20709;-68
2022/04/01 07:42:51;;;;;;;1.63;1.10;;;4.60;79.80;;;2.98;88.52;93893.66;4873478;28;20396;-66
2022/04/01 07:45:17;;;;;;;1.30;1.00;;;4.80;79.80;;;3.01;88.47;93888.88;4866238;28;20307;-67
2022/04/01 07:47:45;;;;;;;1.70;1.25;;;4.80;79.80;;;3.02;88.45;93895.66;4882131;28;20275;-66
2022/04/01 07:50:12;;;;;;;4.05;1.25;;;4.80;79.90;;;3.04;88.52;93893.69;4867747;28;20331;-65
2022/04/01 07:52:40;;;;;;;5.90;1.52;;;4.90;79.70;;;3.04;88.38;93891.06;4883845;28;20578;-65
2022/04/01 07:55:07;;;;;;;1.83;1.30;;;4.80;79.70;;;3.04;88.38;93896.28;4897006;28;20442;-65
2022/04/01 07:57:33;;;;;;;2.50;1.10;;;4.90;79.80;;;3.04;88.53;93896.28;4884790;28;20339;-62
2022/04/01 08:00:00;;;;;;;2.35;1.30;;;4.90;79.50;;;3.07;88.33;93895.88;4876071;28;20476;-62
2022/04/01 08:02:26;;;;;;;1.45;1.05;;;4.80;79.40;;;3.10;88.34;93901.66;4891530;28;20441;-64
2022/04/01 08:04:52;;;;;;;3.55;1.55;;;4.90;79.50;;;3.13;88.34;93901.28;4885783;28;20582;-63
2022/04/01 08:07:18;;;;;;;2.63;1.60;;;4.90;79.30;;;3.17;87.85;93902.47;4885643;28;20299;-64
2022/04/01 08:09:45;;;;;;;2.00;1.40;;;5.10;79.10;;;3.18;88.10;93898.91;4905632;28;20299;-65
2022/04/01 08:12:11;;;;;;;4.70;1.58;;;5.00;79.10;;;3.21;88.70;93908.91;4866994;28;20576;-63
2022/04/01 08:14:39;;;;;;;4.05;2.08;;;5.00;79.40;;;3.25;87.95;93904.91;4907833;28;20385;-65
2022/04/01 08:17:06;;;;;;;9.38;5.55;;;5.10;78.90;;;3.23;87.81;93906.91;4900824;28;20441;-65
2022/04/01 08:19:33;;;;;;;11.55;5.40;;;5.10;78.90;;;3.24;88.11;93908.50;4885298;28;20442;-64
2022/04/01 08:21:59;;;;;;;5.38;3.22;;;5.10;79.20;;;3.27;88.27;93914.09;4891785;28;20505;-63
2022/04/01 08:24:25;;;;;;;3.00;2.10;;;5.20;79.00;;;3.30;87.73;93912.91;4863257;28;20794;-65
2022/04/01 08:26:52;;;;;;;3.72;2.63;;;5.10;78.60;;;3.30;88.03;93918.09;4890094;28;20654;-64
2022/04/01 08:29:18;;;;;;;2.42;1.48;;;5.10;78.90;;;3.25;87.77;93921.28;4868345;28;20494;-64
2022/04/01 08:31:44;;;;;;;1.75;1.00;;;5.10;79.10;;;3.27;87.98;93919.28;4869179;28;20549;-65
2022/04/01 08:34:10;;;;;;;2.40;1.50;;;5.20;79.10;;;3.30;87.82;93918.09;4860528;28;20673;-64
2022/04/01 08:36:36;;;;;;;3.55;1.90;;;5.20;78.90;;;3.34;87.90;93927.09;4867848;28;20304;-64
2022/04/01 08:39:03;;;;;;;3.80;2.20;;;5.40;78.40;;;3.39;88.09;93932.47;4889397;28;20456;-65
2022/04/01 08:41:29;;;;;;;3.47;1.95;;;5.40;78.50;;;3.42;88.11;93932.13;4883456;28;20288;-62
2022/04/01 08:43:55;;;;;;;2.53;1.30;;;5.40;78.50;;;3.44;88.10;93935.31;4885314;28;20199;-62
2022/04/01 08:46:22;;;;;;;3.22;1.83;;;5.40;78.40;;;3.41;87.87;93937.50;4886470;28;20404;-65
2022/04/01 08:48:48;;;;;;;3.97;2.33;;;5.20;78.10;;;3.38;87.67;93944.69;4907771;28;20346;-63
2022/04/01 08:51:15;;;;;;;3.15;1.98;;;5.10;78.70;;;3.40;87.86;93941.09;4905809;28;20398;-63
2022/04/01 08:53:43;;;;;;;2.45;1.80;;;5.30;78.60;;;3.40;87.58;93943.72;4927966;28;20499;-65
2022/04/01 08:56:09;;;;;;;2.83;1.40;;;5.40;78.10;;;3.41;87.43;93942.72;4866273;28;20322;-64
2022/04/01 08:58:35;;;;;;;1.30;0.80;;;5.40;77.20;;;3.41;87.40;93940.91;4890677;28;20039;-65
2022/04/01 09:01:02;;;;;;;1.60;1.02;;;5.40;77.90;;;3.50;87.57;93944.91;4884112;28;20050;-65
2022/04/01 09:03:28;;;;;;;0.98;0.80;;;5.60;77.50;;;3.54;87.57;93951.31;4869340;28;20185;-64
2022/04/01 09:05:56;;;;;;;0.77;0.70;;;5.60;76.80;;;3.57;87.47;93950.09;4882064;28;20335;-64
2022/04/01 09:08:39;;;;;;;2.47;1.02;;;5.70;77.60;;;3.60;87.24;93955.69;4916544;28;20310;-63
2022/04/01 09:11:18;;;;;;;1.40;0.88;;;5.60;77.50;;;3.60;87.08;93954.91;4918508;28;20329;-65
2022/04/01 09:13:48;;;;;;;1.15;0.88;;;5.60;77.40;;;3.63;87.21;93955.34;4856862;28;20323;-65
2022/04/01 09:16:31;;;;;;;1.15;0.68;;;5.60;77.30;;;3.57;86.50;93963.91;4908686;28;20386;-66
2022/04/01 09:19:04;;;;;;;3.08;0.93;;;5.30;77.10;;;3.49;86.76;93964.09;4884594;28;20364;-63
2022/04/01 09:21:33;;;;;;;1.52;0.80;;;5.20;78.30;;;3.48;86.66;93967.69;4894733;28;20370;-65
2022/04/01 09:23:59;;;;;;;1.63;0.70;;;5.30;78.00;;;3.44;86.53;93971.69;4865399;28;20395;-64
2022/04/01 09:26:35;;;;;;;0.80;0.70;;;5.10;77.90;;;3.44;86.61;93974.28;4894781;28;20259;-63
2022/04/01 09:29:02;;;;;;;1.45;0.93;;;5.20;77.90;;;3.31;86.58;93956.88;4901080;28;20525;-62
2022/04/01 09:31:52;;;;;;;1.75;1.00;;;5.20;78.40;;;3.34;87.17;93981.66;4886161;28;20421;-63
2022/04/01 09:34:18;;;;;;;2.42;1.48;;;5.20;78.40;;;3.31;86.75;93982.84;4873094;28;20434;-64
2022/04/01 09:36:44;;;;;;;2.40;1.20;;;5.10;78.40;;;3.25;86.87;93985.44;4861056;28;20452;-64
2022/04/01 09:39:18;;;;;;;1.30;0.88;;;5.10;78.40;;;3.26;87.05;93980.03;4886318;28;20407;-64
2022/04/01 09:41:52;;;;;;;1.92;1.10;;;5.10;78.80;;;3.27;87.18;93989.44;4908843;28;20685;-66
2022/04/01 09:44:29;;;;;;;2.70;1.00;;;5.10;78.40;;;3.27;87.49;93989.44;4865729;28;20486;-65
2022/04/01 09:47:03;;;;;;;1.58;0.93;;;5.20;78.40;;;3.29;87.43;93994.44;4882664;28;20358;-66
2022/04/01 09:49:29;;;;;;;1.02;0.80;;;5.30;78.30;;;3.24;86.58;93996.81;4884217;28;20501;-65
2022/04/01 09:51:55;;;;;;;1.70;1.10;;;4.90;78.50;;;3.23;87.44;93992.63;4886601;28;20756;-63
2022/04/01 09:54:23;;;;;;;1.13;0.80;;;5.00;79.30;;;3.22;87.43;93993.63;4904083;28;20342;-64
2022/04/01 09:56:54;;;;;;;1.10;0.70;;;5.10;79.70;;;3.22;87.56;93993.63;4880213;28;20417;-65
2022/04/01 09:59:21;;;;;;;1.85;0.90;;;5.00;78.90;;;3.24;87.44;93995.03;4898606;28;20785;-65
2022/04/01 10:01:47;;;;;;;1.00;0.70;;;5.10;79.30;;;3.27;87.51;94001.63;4868826;28;20501;-65
2022/04/01 10:04:14;;;;;;;2.30;1.50;;;5.20;79.00;;;3.26;87.46;93998.22;4882534;28;20527;-65
2022/04/01 10:06:40;;;;;;;2.30;1.30;;;5.10;79.00;;;3.31;87.65;94000.22;4880302;28;20333;-65
2022/04/01 10:09:10;;;;;;;3.30;1.98;;;5.40;79.00;;;3.36;87.79;94001.22;4877097;28;20351;-66
2022/04/01 10:11:39;;;;;;;2.35;1.38;;;5.50;78.80;;;3.42;87.84;94004.06;4838428;28;20344;-66
2022/04/01 10:14:16;;;;;;;2.13;1.13;;;5.40;79.00;;;3.42;87.86;94004.88;4867363;28;20503;-67
2022/04/01 10:16:45;;;;;;;1.33;1.10;;;5.30;78.10;;;3.39;87.35;94005.25;4873298;28;20074;-63
2022/04/01 10:19:14;;;;;;;1.42;0.80;;;5.30;78.70;;;3.43;87.39;94010.88;4900840;28;20486;-63
2022/04/01 10:21:43;;;;;;;0.98;0.70;;;5.30;78.40;;;3.41;87.67;94016.25;4882909;28;20359;-63
2022/04/01 10:24:26;;;;;;;1.48;0.80;;;5.40;79.10;;;3.44;87.90;94010.66;4899397;28;20371;-63
2022/04/01 10:27:03;;;;;;;2.50;0.63;;;5.50;78.30;;;3.49;87.85;94008.28;4888762;28;20214;-64
2022/04/01 10:29:30;;;;;;;1.25;0.88;;;5.40;78.60;;;3.45;87.54;94017.47;4916731;28;20699;-66
2022/04/01 10:32:34;;;;;;;1.73;0.90;;;5.30;78.70;;;3.48;87.47;94019.66;4904904;28;20325;-67
2022/04/01 10:35:02;;;;;;;2.08;0.70;;;5.40;78.40;;;3.46;87.28;94021.66;4921017;28;20234;-67
2022/04/01 10:37:30;;;;;;;1.45;0.88;;;5.30;78.40;;;3.44;87.32;94023.66;4900804;28;20351;-67
2022/04/01 10:39:58;;;;;;;1.42;1.10;;;5.30;78.70;;;3.42;87.68;94025.66;4893529;28;20420;-65
2022/04/01 10:42:36;;;;;;;1.23;1.00;;;5.30;79.00;;;3.42;87.75;94023.06;4893245;28;20205;-65
2022/04/01 10:45:23;;;;;;;1.10;0.70;;;5.10;78.80;;;3.43;87.56;94024.66;4897652;28;20598;-64
2022/04/01 10:53:46;;;;;;;2.55;1.00;;;5.30;78.90;;;3.47;87.99;94030.25;4894607;28;20406;-64
2022/04/01 10:56:23;;;;;;;1.23;0.80;;;5.30;78.70;;;3.41;87.36;94033.66;4863107;28;20453;-67